sensor_id;sensor_type;location;lat;lon;timestamp;P1;durP1;ratioP1;P2;durP2;ratioP2
62256;SDS011;48240;52.962;5.790;2023-09-19T03:50:30;3.45;;;0.88;;
62256;SDS011;48240;52.962;5.790;2023-09-19T03:52:58;3.08;;;0.80;;
62256;SDS011;48240;52.962;5.790;2023-09-19T03:55:24;4.93;;;1.27;;
62256;SDS011;48240;52.962;5.790;2023-09-19T03:57:50;1.90;;;0.93;;
62256;SDS011;48240;52.962;5.790;2023-09-19T04:00:17;3.78;;;0.90;;
62256;SDS011;48240;52.962;5.790;2023-09-19T04:02:47;2.15;;;1.00;;
62256;SDS011;48240;52.962;5.790;2023-09-19T04:05:13;2.17;;;0.70;;
62256;SDS011;48240;52.962;5.790;2023-09-19T04:07:39;2.53;;;1.00;;
62256;SDS011;48240;52.962;5.790;2023-09-19T04:10:05;3.40;;;0.93;;
62256;SDS011;48240;52.962;5.790;2023-09-19T04:12:34;3.65;;;1.00;;
62256;SDS011;48240;52.962;5.790;2023-09-19T04:15:00;2.97;;;0.95;;
62256;SDS011;48240;52.962;5.790;2023-09-19T04:17:26;1.88;;;0.90;;
62256;SDS011;48240;52.962;5.790;2023-09-19T04:19:52;3.05;;;0.90;;
62256;SDS011;48240;52.962;5.790;2023-09-19T04:22:18;2.78;;;1.10;;
62256;SDS011;48240;52.962;5.790;2023-09-19T04:24:44;3.55;;;0.93;;
62256;SDS011;48240;52.962;5.790;2023-09-19T04:27:10;4.13;;;1.10;;
62256;SDS011;48240;52.962;5.790;2023-09-19T04:29:39;3.05;;;0.98;;
62256;SDS011;48240;52.962;5.790;2023-09-19T04:32:06;3.03;;;0.90;;
62256;SDS011;48240;52.962;5.790;2023-09-19T04:34:33;6.45;;;1.08;;
62256;SDS011;48240;52.962;5.790;2023-09-19T04:36:59;4.25;;;0.95;;
62256;SDS011;48240;52.962;5.790;2023-09-19T04:39:26;3.67;;;0.95;;
62256;SDS011;48240;52.962;5.790;2023-09-19T04:41:52;3.28;;;1.02;;
62256;SDS011;48240;52.962;5.790;2023-09-19T04:44:19;5.03;;;1.35;;
62256;SDS011;48240;52.962;5.790;2023-09-19T04:46:46;3.90;;;1.00;;
62256;SDS011;48240;52.962;5.790;2023-09-19T04:49:12;5.95;;;1.25;;
62256;SDS011;48240;52.962;5.790;2023-09-19T04:51:38;3.67;;;0.88;;
62256;SDS011;48240;52.962;5.790;2023-09-19T04:54:05;3.88;;;1.17;;
62256;SDS011;48240;52.962;5.790;2023-09-19T04:56:31;4.60;;;1.30;;
62256;SDS011;48240;52.962;5.790;2023-09-19T04:58:59;2.55;;;1.15;;
62256;SDS011;48240;52.962;5.790;2023-09-19T05:01:25;3.88;;;1.25;;
62256;SDS011;48240;52.962;5.790;2023-09-19T05:03:52;7.05;;;1.20;;
62256;SDS011;48240;52.962;5.790;2023-09-19T05:06:21;3.25;;;1.08;;
62256;SDS011;48240;52.962;5.790;2023-09-19T05:08:47;3.72;;;1.00;;
62256;SDS011;48240;52.962;5.790;2023-09-19T05:11:20;4.47;;;1.20;;
62256;SDS011;48240;52.962;5.790;2023-09-19T05:13:48;4.13;;;0.90;;
62256;SDS011;48240;52.962;5.790;2023-09-19T05:16:15;3.75;;;0.93;;
62256;SDS011;48240;52.962;5.790;2023-09-19T05:18:42;4.22;;;0.88;;
62256;SDS011;48240;52.962;5.790;2023-09-19T05:21:08;3.35;;;1.10;;
62256;SDS011;48240;52.962;5.790;2023-09-19T05:23:34;5.53;;;1.20;;
62256;SDS011;48240;52.962;5.790;2023-09-19T05:26:00;5.47;;;1.27;;
62256;SDS011;48240;52.962;5.790;2023-09-19T05:28:26;3.97;;;1.00;;
62256;SDS011;48240;52.962;5.790;2023-09-19T05:30:53;2.30;;;0.80;;
62256;SDS011;48240;52.962;5.790;2023-09-19T05:33:19;3.72;;;1.15;;
62256;SDS011;48240;52.962;5.790;2023-09-19T05:35:45;3.78;;;1.00;;
62256;SDS011;48240;52.962;5.790;2023-09-19T05:38:13;4.53;;;1.10;;
62256;SDS011;48240;52.962;5.790;2023-09-19T05:40:44;3.63;;;0.95;;
62256;SDS011;48240;52.962;5.790;2023-09-19T05:43:10;4.55;;;1.25;;
62256;SDS011;48240;52.962;5.790;2023-09-19T05:45:36;3.80;;;1.05;;
62256;SDS011;48240;52.962;5.790;2023-09-19T05:48:10;4.50;;;1.25;;
62256;SDS011;48240;52.962;5.790;2023-09-19T05:50:40;4.78;;;1.00;;
62256;SDS011;48240;52.962;5.790;2023-09-19T05:53:06;4.55;;;1.00;;
62256;SDS011;48240;52.962;5.790;2023-09-19T05:55:33;4.78;;;1.10;;
62256;SDS011;48240;52.962;5.790;2023-09-19T05:58:00;4.28;;;1.05;;
62256;SDS011;48240;52.962;5.790;2023-09-19T06:00:28;3.20;;;1.02;;
62256;SDS011;48240;52.962;5.790;2023-09-19T06:02:57;4.30;;;1.10;;
62256;SDS011;48240;52.962;5.790;2023-09-19T06:05:24;2.05;;;0.85;;
62256;SDS011;48240;52.962;5.790;2023-09-19T06:07:51;4.38;;;0.98;;
62256;SDS011;48240;52.962;5.790;2023-09-19T06:10:18;3.65;;;1.13;;
62256;SDS011;48240;52.962;5.790;2023-09-19T06:12:46;4.22;;;1.35;;
62256;SDS011;48240;52.962;5.790;2023-09-19T06:15:13;3.17;;;0.95;;
62256;SDS011;48240;52.962;5.790;2023-09-19T06:17:48;2.90;;;1.38;;
62256;SDS011;48240;52.962;5.790;2023-09-19T06:20:15;3.47;;;0.93;;
62256;SDS011;48240;52.962;5.790;2023-09-19T06:22:42;4.85;;;1.00;;
62256;SDS011;48240;52.962;5.790;2023-09-19T06:25:09;4.63;;;1.20;;
62256;SDS011;48240;52.962;5.790;2023-09-19T06:27:44;3.53;;;1.00;;
62256;SDS011;48240;52.962;5.790;2023-09-19T06:30:10;6.57;;;1.05;;
62256;SDS011;48240;52.962;5.790;2023-09-19T06:32:37;3.55;;;1.00;;
62256;SDS011;48240;52.962;5.790;2023-09-19T06:35:04;4.70;;;1.20;;
62256;SDS011;48240;52.962;5.790;2023-09-19T06:37:33;3.80;;;1.25;;
62256;SDS011;48240;52.962;5.790;2023-09-19T06:40:00;2.78;;;0.85;;
62256;SDS011;48240;52.962;5.790;2023-09-19T06:42:26;8.98;;;1.45;;
62256;SDS011;48240;52.962;5.790;2023-09-19T06:44:53;16.00;;;1.75;;
62256;SDS011;48240;52.962;5.790;2023-09-19T06:47:19;9.25;;;1.38;;
62256;SDS011;48240;52.962;5.790;2023-09-19T06:49:46;7.00;;;1.67;;
62256;SDS011;48240;52.962;5.790;2023-09-19T06:52:13;7.38;;;1.70;;
62256;SDS011;48240;52.962;5.790;2023-09-19T06:54:40;10.88;;;1.88;;
62256;SDS011;48240;52.962;5.790;2023-09-19T06:57:06;9.25;;;1.52;;
62256;SDS011;48240;52.962;5.790;2023-09-19T06:59:35;8.27;;;1.60;;
62256;SDS011;48240;52.962;5.790;2023-09-19T07:02:02;10.18;;;1.95;;
62256;SDS011;48240;52.962;5.790;2023-09-19T07:04:31;6.90;;;1.63;;
62256;SDS011;48240;52.962;5.790;2023-09-19T07:06:57;12.32;;;1.67;;
62256;SDS011;48240;52.962;5.790;2023-09-19T07:09:23;11.70;;;2.00;;
62256;SDS011;48240;52.962;5.790;2023-09-19T07:11:52;10.13;;;1.58;;
62256;SDS011;48240;52.962;5.790;2023-09-19T07:14:18;8.57;;;1.35;;
62256;SDS011;48240;52.962;5.790;2023-09-19T07:16:44;15.05;;;2.00;;
62256;SDS011;48240;52.962;5.790;2023-09-19T07:19:12;6.85;;;1.55;;
62256;SDS011;48240;52.962;5.790;2023-09-19T07:21:40;12.40;;;2.30;;
62256;SDS011;48240;52.962;5.790;2023-09-19T07:24:07;9.68;;;1.40;;
62256;SDS011;48240;52.962;5.790;2023-09-19T07:26:33;12.55;;;2.13;;
62256;SDS011;48240;52.962;5.790;2023-09-19T07:29:00;6.13;;;1.60;;
62256;SDS011;48240;52.962;5.790;2023-09-19T07:31:29;14.30;;;1.80;;
62256;SDS011;48240;52.962;5.790;2023-09-19T07:33:56;11.35;;;3.28;;
62256;SDS011;48240;52.962;5.790;2023-09-19T07:36:22;11.43;;;2.10;;
62256;SDS011;48240;52.962;5.790;2023-09-19T07:38:49;15.18;;;2.20;;
62256;SDS011;48240;52.962;5.790;2023-09-19T07:41:15;10.52;;;1.75;;
62256;SDS011;48240;52.962;5.790;2023-09-19T07:43:41;13.98;;;2.10;;
62256;SDS011;48240;52.962;5.790;2023-09-19T07:46:09;11.23;;;1.70;;
62256;SDS011;48240;52.962;5.790;2023-09-19T07:48:36;13.50;;;1.77;;
62256;SDS011;48240;52.962;5.790;2023-09-19T07:51:06;12.73;;;2.10;;
62256;SDS011;48240;52.962;5.790;2023-09-19T07:53:33;9.40;;;2.08;;
62256;SDS011;48240;52.962;5.790;2023-09-19T07:56:06;7.82;;;1.50;;
62256;SDS011;48240;52.962;5.790;2023-09-19T07:58:32;10.30;;;1.98;;
62256;SDS011;48240;52.962;5.790;2023-09-19T08:01:08;10.90;;;2.00;;
62256;SDS011;48240;52.962;5.790;2023-09-19T08:03:35;10.65;;;1.70;;
62256;SDS011;48240;52.962;5.790;2023-09-19T08:06:06;6.23;;;1.20;;
62256;SDS011;48240;52.962;5.790;2023-09-19T08:08:32;8.43;;;1.73;;
62256;SDS011;48240;52.962;5.790;2023-09-19T08:11:04;8.75;;;2.13;;
62256;SDS011;48240;52.962;5.790;2023-09-19T08:13:40;8.60;;;1.90;;
62256;SDS011;48240;52.962;5.790;2023-09-19T08:16:12;7.85;;;1.55;;
62256;SDS011;48240;52.962;5.790;2023-09-19T08:21:06;12.20;;;1.95;;
62256;SDS011;48240;52.962;5.790;2023-09-19T08:23:39;10.07;;;1.98;;
62256;SDS011;48240;52.962;5.790;2023-09-19T08:26:05;11.70;;;1.75;;
62256;SDS011;48240;52.962;5.790;2023-09-19T08:28:35;11.88;;;2.28;;
62256;SDS011;48240;52.962;5.790;2023-09-19T08:31:05;9.60;;;1.67;;
62256;SDS011;48240;52.962;5.790;2023-09-19T08:33:34;11.77;;;1.73;;
62256;SDS011;48240;52.962;5.790;2023-09-19T08:36:03;11.80;;;1.80;;
62256;SDS011;48240;52.962;5.790;2023-09-19T08:38:33;8.43;;;1.70;;
62256;SDS011;48240;52.962;5.790;2023-09-19T08:41:00;9.68;;;2.15;;
62256;SDS011;48240;52.962;5.790;2023-09-19T08:43:26;15.55;;;1.83;;
62256;SDS011;48240;52.962;5.790;2023-09-19T08:45:55;11.75;;;1.83;;
62256;SDS011;48240;52.962;5.790;2023-09-19T08:48:26;11.20;;;2.15;;
62256;SDS011;48240;52.962;5.790;2023-09-19T08:50:58;9.45;;;2.00;;
62256;SDS011;48240;52.962;5.790;2023-09-19T08:53:42;11.77;;;2.08;;
62256;SDS011;48240;52.962;5.790;2023-09-19T08:56:11;13.68;;;1.90;;
62256;SDS011;48240;52.962;5.790;2023-09-19T08:58:39;14.63;;;2.05;;
62256;SDS011;48240;52.962;5.790;2023-09-19T09:01:09;9.68;;;2.10;;
62256;SDS011;48240;52.962;5.790;2023-09-19T09:03:39;10.30;;;2.15;;
62256;SDS011;48240;52.962;5.790;2023-09-19T09:06:07;11.35;;;1.95;;
62256;SDS011;48240;52.962;5.790;2023-09-19T09:08:38;13.43;;;2.20;;
62256;SDS011;48240;52.962;5.790;2023-09-19T09:11:04;11.15;;;1.88;;
62256;SDS011;48240;52.962;5.790;2023-09-19T09:13:33;8.48;;;1.90;;
62256;SDS011;48240;52.962;5.790;2023-09-19T09:16:00;13.45;;;2.10;;
62256;SDS011;48240;52.962;5.790;2023-09-19T09:18:27;14.73;;;2.10;;
62256;SDS011;48240;52.962;5.790;2023-09-19T09:20:55;12.48;;;2.42;;
62256;SDS011;48240;52.962;5.790;2023-09-19T09:23:21;13.43;;;2.13;;
62256;SDS011;48240;52.962;5.790;2023-09-19T09:25:48;14.25;;;2.03;;
62256;SDS011;48240;52.962;5.790;2023-09-19T09:28:19;17.20;;;2.38;;
62256;SDS011;48240;52.962;5.790;2023-09-19T09:30:46;12.63;;;2.20;;
62256;SDS011;48240;52.962;5.790;2023-09-19T09:33:12;12.50;;;2.08;;
62256;SDS011;48240;52.962;5.790;2023-09-19T09:35:48;13.27;;;2.08;;
62256;SDS011;48240;52.962;5.790;2023-09-19T09:38:17;16.23;;;2.17;;
62256;SDS011;48240;52.962;5.790;2023-09-19T09:40:47;10.88;;;2.15;;
62256;SDS011;48240;52.962;5.790;2023-09-19T09:48:46;15.68;;;2.70;;
62256;SDS011;48240;52.962;5.790;2023-09-19T09:51:32;10.82;;;2.17;;
62256;SDS011;48240;52.962;5.790;2023-09-19T09:54:12;12.10;;;2.00;;
62256;SDS011;48240;52.962;5.790;2023-09-19T09:56:57;10.55;;;2.30;;
62256;SDS011;48240;52.962;5.790;2023-09-19T09:59:44;15.02;;;2.00;;
62256;SDS011;48240;52.962;5.790;2023-09-19T10:02:13;11.10;;;2.25;;
62256;SDS011;48240;52.962;5.790;2023-09-19T10:04:45;13.68;;;2.28;;
62256;SDS011;48240;52.962;5.790;2023-09-19T10:07:27;11.60;;;2.13;;
62256;SDS011;48240;52.962;5.790;2023-09-19T10:09:59;10.88;;;2.33;;
62256;SDS011;48240;52.962;5.790;2023-09-19T10:12:34;13.95;;;2.65;;
62256;SDS011;48240;52.962;5.790;2023-09-19T10:15:03;12.10;;;2.42;;
62256;SDS011;48240;52.962;5.790;2023-09-19T10:17:31;12.82;;;2.28;;
62256;SDS011;48240;52.962;5.790;2023-09-19T10:19:59;14.80;;;2.50;;
62256;SDS011;48240;52.962;5.790;2023-09-19T10:22:34;16.55;;;2.47;;
62256;SDS011;48240;52.962;5.790;2023-09-19T10:25:00;14.10;;;2.63;;
62256;SDS011;48240;52.962;5.790;2023-09-19T10:27:29;9.38;;;2.38;;
62256;SDS011;48240;52.962;5.790;2023-09-19T10:29:55;11.43;;;2.13;;
62256;SDS011;48240;52.962;5.790;2023-09-19T10:32:24;14.40;;;2.30;;
62256;SDS011;48240;52.962;5.790;2023-09-19T10:34:53;13.27;;;2.30;;
62256;SDS011;48240;52.962;5.790;2023-09-19T10:37:20;9.63;;;2.13;;
62256;SDS011;48240;52.962;5.790;2023-09-19T10:39:47;12.80;;;2.78;;
62256;SDS011;48240;52.962;5.790;2023-09-19T10:42:16;15.35;;;2.38;;
62256;SDS011;48240;52.962;5.790;2023-09-19T10:44:45;17.38;;;2.55;;
62256;SDS011;48240;52.962;5.790;2023-09-19T10:47:11;13.52;;;2.63;;
62256;SDS011;48240;52.962;5.790;2023-09-19T10:49:44;12.73;;;2.05;;
62256;SDS011;48240;52.962;5.790;2023-09-19T10:52:15;10.93;;;2.28;;
62256;SDS011;48240;52.962;5.790;2023-09-19T10:54:47;9.27;;;2.13;;
62256;SDS011;48240;52.962;5.790;2023-09-19T10:57:20;8.95;;;1.88;;
62256;SDS011;48240;52.962;5.790;2023-09-19T11:00:04;16.70;;;2.72;;
62256;SDS011;48240;52.962;5.790;2023-09-19T11:05:36;10.32;;;2.40;;
62256;SDS011;48240;52.962;5.790;2023-09-19T11:08:06;12.80;;;2.33;;
62256;SDS011;48240;52.962;5.790;2023-09-19T11:10:45;9.02;;;2.20;;
62256;SDS011;48240;52.962;5.790;2023-09-19T11:13:27;6.47;;;1.75;;
62256;SDS011;48240;52.962;5.790;2023-09-19T11:23:32;7.88;;;1.95;;
62256;SDS011;48240;52.962;5.790;2023-09-19T11:26:02;7.88;;;2.13;;
62256;SDS011;48240;52.962;5.790;2023-09-19T11:28:30;11.80;;;2.42;;
62256;SDS011;48240;52.962;5.790;2023-09-19T11:30:56;10.52;;;2.40;;
62256;SDS011;48240;52.962;5.790;2023-09-19T11:33:30;8.18;;;2.33;;
62256;SDS011;48240;52.962;5.790;2023-09-19T11:43:51;8.80;;;2.20;;
62256;SDS011;48240;52.962;5.790;2023-09-19T11:46:20;21.73;;;2.13;;
62256;SDS011;48240;52.962;5.790;2023-09-19T11:48:49;10.05;;;2.15;;
62256;SDS011;48240;52.962;5.790;2023-09-19T11:51:16;9.05;;;2.67;;
62256;SDS011;48240;52.962;5.790;2023-09-19T11:53:52;9.15;;;2.00;;
62256;SDS011;48240;52.962;5.790;2023-09-19T11:56:19;8.50;;;2.28;;
62256;SDS011;48240;52.962;5.790;2023-09-19T11:58:46;10.52;;;2.05;;
62256;SDS011;48240;52.962;5.790;2023-09-19T12:01:14;9.32;;;2.15;;
62256;SDS011;48240;52.962;5.790;2023-09-19T12:03:46;11.52;;;2.10;;
62256;SDS011;48240;52.962;5.790;2023-09-19T12:06:15;8.20;;;1.90;;
62256;SDS011;48240;52.962;5.790;2023-09-19T12:08:42;7.60;;;1.88;;
62256;SDS011;48240;52.962;5.790;2023-09-19T12:11:12;8.38;;;2.20;;
62256;SDS011;48240;52.962;5.790;2023-09-19T12:13:44;6.30;;;1.60;;
62256;SDS011;48240;52.962;5.790;2023-09-19T12:16:20;8.82;;;2.05;;
62256;SDS011;48240;52.962;5.790;2023-09-19T12:18:49;9.75;;;1.90;;
62256;SDS011;48240;52.962;5.790;2023-09-19T12:23:59;4.93;;;1.50;;
62256;SDS011;48240;52.962;5.790;2023-09-19T12:26:28;11.25;;;2.03;;
62256;SDS011;48240;52.962;5.790;2023-09-19T12:28:55;9.35;;;2.10;;
62256;SDS011;48240;52.962;5.790;2023-09-19T12:31:22;5.05;;;1.52;;
62256;SDS011;48240;52.962;5.790;2023-09-19T12:33:53;10.30;;;1.85;;
62256;SDS011;48240;52.962;5.790;2023-09-19T12:36:22;11.38;;;2.30;;
62256;SDS011;48240;52.962;5.790;2023-09-19T12:38:59;3.55;;;1.27;;
62256;SDS011;48240;52.962;5.790;2023-09-19T12:41:25;8.43;;;1.73;;
62256;SDS011;48240;52.962;5.790;2023-09-19T12:43:55;6.50;;;1.48;;
62256;SDS011;48240;52.962;5.790;2023-09-19T12:46:22;5.32;;;1.50;;
62256;SDS011;48240;52.962;5.790;2023-09-19T12:49:14;8.27;;;1.50;;
62256;SDS011;48240;52.962;5.790;2023-09-19T12:51:38;6.20;;;1.63;;
62256;SDS011;48240;52.962;5.790;2023-09-19T12:54:04;7.00;;;1.67;;
62256;SDS011;48240;52.962;5.790;2023-09-19T12:56:30;4.80;;;1.58;;
62256;SDS011;48240;52.962;5.790;2023-09-19T12:59:06;7.70;;;1.63;;
62256;SDS011;48240;52.962;5.790;2023-09-19T13:01:35;7.43;;;1.67;;
62256;SDS011;48240;52.962;5.790;2023-09-19T13:06:38;5.25;;;1.33;;
62256;SDS011;48240;52.962;5.790;2023-09-19T13:09:08;9.07;;;1.93;;
62256;SDS011;48240;52.962;5.790;2023-09-19T13:11:38;4.72;;;1.33;;
62256;SDS011;48240;52.962;5.790;2023-09-19T13:14:18;5.35;;;1.48;;
62256;SDS011;48240;52.962;5.790;2023-09-19T13:19:40;6.25;;;1.60;;
62256;SDS011;48240;52.962;5.790;2023-09-19T13:24:51;6.50;;;1.40;;
62256;SDS011;48240;52.962;5.790;2023-09-19T13:27:17;7.95;;;1.40;;
62256;SDS011;48240;52.962;5.790;2023-09-19T13:29:43;5.78;;;1.23;;
62256;SDS011;48240;52.962;5.790;2023-09-19T13:32:09;5.25;;;1.27;;
62256;SDS011;48240;52.962;5.790;2023-09-19T13:34:36;5.70;;;1.52;;
62256;SDS011;48240;52.962;5.790;2023-09-19T13:37:03;6.00;;;1.73;;
62256;SDS011;48240;52.962;5.790;2023-09-19T13:39:29;5.32;;;1.20;;
62256;SDS011;48240;52.962;5.790;2023-09-19T13:41:55;4.55;;;1.20;;
62256;SDS011;48240;52.962;5.790;2023-09-19T13:44:21;4.38;;;1.30;;
62256;SDS011;48240;52.962;5.790;2023-09-19T13:46:48;7.43;;;1.02;;
62256;SDS011;48240;52.962;5.790;2023-09-19T13:49:14;9.35;;;2.67;;
62256;SDS011;48240;52.962;5.790;2023-09-19T13:51:42;10.82;;;2.33;;
62256;SDS011;48240;52.962;5.790;2023-09-19T13:54:09;15.57;;;3.17;;
62256;SDS011;48240;52.962;5.790;2023-09-19T13:56:37;18.92;;;3.40;;
62256;SDS011;48240;52.962;5.790;2023-09-19T13:59:03;17.08;;;3.63;;
62256;SDS011;48240;52.962;5.790;2023-09-19T14:01:29;15.60;;;3.60;;
62256;SDS011;48240;52.962;5.790;2023-09-19T14:03:56;18.02;;;3.53;;
62256;SDS011;48240;52.962;5.790;2023-09-19T14:06:22;21.85;;;4.32;;
62256;SDS011;48240;52.962;5.790;2023-09-19T14:08:48;17.42;;;3.63;;
62256;SDS011;48240;52.962;5.790;2023-09-19T14:11:15;22.38;;;3.92;;
62256;SDS011;48240;52.962;5.790;2023-09-19T14:13:41;13.57;;;3.75;;
62256;SDS011;48240;52.962;5.790;2023-09-19T14:16:12;16.08;;;3.60;;
62256;SDS011;48240;52.962;5.790;2023-09-19T14:18:38;18.27;;;4.15;;
62256;SDS011;48240;52.962;5.790;2023-09-19T14:21:05;12.95;;;3.03;;
62256;SDS011;48240;52.962;5.790;2023-09-19T14:23:37;16.05;;;3.90;;
62256;SDS011;48240;52.962;5.790;2023-09-19T14:26:04;14.77;;;3.20;;
62256;SDS011;48240;52.962;5.790;2023-09-19T14:28:33;19.35;;;3.85;;
62256;SDS011;48240;52.962;5.790;2023-09-19T14:31:06;15.32;;;3.65;;
62256;SDS011;48240;52.962;5.790;2023-09-19T14:33:32;16.15;;;3.95;;
62256;SDS011;48240;52.962;5.790;2023-09-19T14:36:00;18.45;;;4.18;;
62256;SDS011;48240;52.962;5.790;2023-09-19T14:38:28;9.23;;;3.27;;
62256;SDS011;48240;52.962;5.790;2023-09-19T14:41:01;16.25;;;3.65;;
62256;SDS011;48240;52.962;5.790;2023-09-19T14:43:27;12.80;;;3.10;;
62256;SDS011;48240;52.962;5.790;2023-09-19T14:45:57;11.95;;;3.55;;
62256;SDS011;48240;52.962;5.790;2023-09-19T14:48:24;10.35;;;3.17;;
62256;SDS011;48240;52.962;5.790;2023-09-19T14:50:51;11.15;;;3.42;;
62256;SDS011;48240;52.962;5.790;2023-09-19T14:53:18;10.82;;;3.00;;
62256;SDS011;48240;52.962;5.790;2023-09-19T14:55:44;11.80;;;2.90;;
62256;SDS011;48240;52.962;5.790;2023-09-19T14:58:12;9.90;;;2.40;;
62256;SDS011;48240;52.962;5.790;2023-09-19T15:00:39;10.13;;;2.83;;
62256;SDS011;48240;52.962;5.790;2023-09-19T15:03:05;7.95;;;2.50;;
62256;SDS011;48240;52.962;5.790;2023-09-19T15:05:31;10.10;;;2.90;;
62256;SDS011;48240;52.962;5.790;2023-09-19T15:07:59;12.40;;;2.78;;
62256;SDS011;48240;52.962;5.790;2023-09-19T15:10:25;8.68;;;2.40;;
62256;SDS011;48240;52.962;5.790;2023-09-19T15:12:51;7.95;;;2.60;;
62256;SDS011;48240;52.962;5.790;2023-09-19T15:15:17;9.00;;;2.53;;
62256;SDS011;48240;52.962;5.790;2023-09-19T15:17:43;8.38;;;2.60;;
62256;SDS011;48240;52.962;5.790;2023-09-19T15:20:10;7.43;;;2.10;;
62256;SDS011;48240;52.962;5.790;2023-09-19T15:22:39;8.57;;;2.50;;
62256;SDS011;48240;52.962;5.790;2023-09-19T15:25:05;10.57;;;2.40;;
62256;SDS011;48240;52.962;5.790;2023-09-19T15:27:31;8.15;;;2.30;;
62256;SDS011;48240;52.962;5.790;2023-09-19T15:30:01;11.52;;;2.53;;
62256;SDS011;48240;52.962;5.790;2023-09-19T15:32:30;6.32;;;1.98;;
62256;SDS011;48240;52.962;5.790;2023-09-19T15:34:57;21.15;;;3.50;;
62256;SDS011;48240;52.962;5.790;2023-09-19T15:37:23;18.55;;;3.17;;
62256;SDS011;48240;52.962;5.790;2023-09-19T15:39:49;12.40;;;2.92;;
62256;SDS011;48240;52.962;5.790;2023-09-19T15:42:16;11.52;;;2.95;;
62256;SDS011;48240;52.962;5.790;2023-09-19T15:44:42;13.27;;;2.47;;
62256;SDS011;48240;52.962;5.790;2023-09-19T15:47:09;10.13;;;2.30;;
62256;SDS011;48240;52.962;5.790;2023-09-19T15:49:35;9.15;;;2.65;;
62256;SDS011;48240;52.962;5.790;2023-09-19T15:52:01;10.60;;;2.20;;
62256;SDS011;48240;52.962;5.790;2023-09-19T15:54:28;9.48;;;1.98;;
62256;SDS011;48240;52.962;5.790;2023-09-19T15:56:54;9.43;;;2.33;;
62256;SDS011;48240;52.962;5.790;2023-09-19T15:59:20;8.27;;;2.10;;
62256;SDS011;48240;52.962;5.790;2023-09-19T16:01:46;11.30;;;2.35;;
62256;SDS011;48240;52.962;5.790;2023-09-19T16:04:13;7.93;;;2.15;;
62256;SDS011;48240;52.962;5.790;2023-09-19T16:06:40;8.30;;;1.80;;
62256;SDS011;48240;52.962;5.790;2023-09-19T16:09:06;7.57;;;2.13;;
62256;SDS011;48240;52.962;5.790;2023-09-19T16:11:34;9.00;;;1.80;;
62256;SDS011;48240;52.962;5.790;2023-09-19T16:14:00;7.75;;;1.98;;
62256;SDS011;48240;52.962;5.790;2023-09-19T16:16:27;5.93;;;1.70;;
62256;SDS011;48240;52.962;5.790;2023-09-19T16:18:59;6.80;;;1.88;;
62256;SDS011;48240;52.962;5.790;2023-09-19T16:21:31;7.18;;;2.05;;
62256;SDS011;48240;52.962;5.790;2023-09-19T16:23:58;10.05;;;2.70;;
62256;SDS011;48240;52.962;5.790;2023-09-19T16:26:24;6.47;;;2.10;;
62256;SDS011;48240;52.962;5.790;2023-09-19T16:28:51;7.90;;;2.33;;
62256;SDS011;48240;52.962;5.790;2023-09-19T16:31:18;7.05;;;2.15;;
62256;SDS011;48240;52.962;5.790;2023-09-19T16:33:45;5.50;;;1.83;;
62256;SDS011;48240;52.962;5.790;2023-09-19T16:36:12;6.32;;;2.10;;
62256;SDS011;48240;52.962;5.790;2023-09-19T16:38:38;5.70;;;1.77;;
62256;SDS011;48240;52.962;5.790;2023-09-19T16:41:05;4.47;;;1.70;;
62256;SDS011;48240;52.962;5.790;2023-09-19T16:43:32;8.45;;;1.88;;
62256;SDS011;48240;52.962;5.790;2023-09-19T16:45:58;6.90;;;2.10;;
62256;SDS011;48240;52.962;5.790;2023-09-19T16:48:25;7.30;;;1.85;;
62256;SDS011;48240;52.962;5.790;2023-09-19T16:50:52;7.30;;;1.98;;
62256;SDS011;48240;52.962;5.790;2023-09-19T16:53:18;6.28;;;1.90;;
62256;SDS011;48240;52.962;5.790;2023-09-19T16:55:45;4.55;;;1.50;;
62256;SDS011;48240;52.962;5.790;2023-09-19T16:58:12;6.60;;;1.50;;
62256;SDS011;48240;52.962;5.790;2023-09-19T17:00:38;4.85;;;1.73;;
62256;SDS011;48240;52.962;5.790;2023-09-19T17:03:04;8.45;;;2.25;;
62256;SDS011;48240;52.962;5.790;2023-09-19T17:05:31;10.85;;;1.95;;
62256;SDS011;48240;52.962;5.790;2023-09-19T17:07:57;3.95;;;1.50;;
62256;SDS011;48240;52.962;5.790;2023-09-19T17:10:29;9.48;;;1.70;;
62256;SDS011;48240;52.962;5.790;2023-09-19T17:12:59;8.50;;;2.00;;
62256;SDS011;48240;52.962;5.790;2023-09-19T17:15:25;7.43;;;1.73;;
62256;SDS011;48240;52.962;5.790;2023-09-19T17:17:52;9.85;;;1.98;;
62256;SDS011;48240;52.962;5.790;2023-09-19T17:20:18;6.68;;;1.83;;
62256;SDS011;48240;52.962;5.790;2023-09-19T17:22:44;6.82;;;1.65;;
62256;SDS011;48240;52.962;5.790;2023-09-19T17:25:11;5.50;;;1.60;;
62256;SDS011;48240;52.962;5.790;2023-09-19T17:27:39;4.57;;;1.80;;
62256;SDS011;48240;52.962;5.790;2023-09-19T17:30:07;8.85;;;2.05;;
62256;SDS011;48240;52.962;5.790;2023-09-19T17:32:35;7.65;;;1.75;;
62256;SDS011;48240;52.962;5.790;2023-09-19T17:35:01;5.18;;;1.88;;
62256;SDS011;48240;52.962;5.790;2023-09-19T17:37:28;7.32;;;1.88;;
62256;SDS011;48240;52.962;5.790;2023-09-19T17:39:54;5.32;;;1.60;;
62256;SDS011;48240;52.962;5.790;2023-09-19T17:42:21;6.32;;;2.10;;
62256;SDS011;48240;52.962;5.790;2023-09-19T17:44:48;7.20;;;1.80;;
62256;SDS011;48240;52.962;5.790;2023-09-19T17:47:15;5.90;;;2.05;;
62256;SDS011;48240;52.962;5.790;2023-09-19T17:49:43;7.70;;;1.90;;
62256;SDS011;48240;52.962;5.790;2023-09-19T17:52:09;4.68;;;1.65;;
62256;SDS011;48240;52.962;5.790;2023-09-19T17:54:36;5.43;;;2.00;;
62256;SDS011;48240;52.962;5.790;2023-09-19T17:57:02;4.65;;;1.63;;
62256;SDS011;48240;52.962;5.790;2023-09-19T17:59:29;6.65;;;2.00;;
62256;SDS011;48240;52.962;5.790;2023-09-19T18:01:55;5.30;;;2.05;;
62256;SDS011;48240;52.962;5.790;2023-09-19T18:04:21;6.13;;;1.83;;
62256;SDS011;48240;52.962;5.790;2023-09-19T18:06:47;5.63;;;1.92;;
62256;SDS011;48240;52.962;5.790;2023-09-19T18:09:14;6.53;;;1.92;;
62256;SDS011;48240;52.962;5.790;2023-09-19T18:11:43;6.97;;;1.95;;
62256;SDS011;48240;52.962;5.790;2023-09-19T18:14:09;4.10;;;1.52;;
62256;SDS011;48240;52.962;5.790;2023-09-19T18:16:35;8.05;;;1.70;;
62256;SDS011;48240;52.962;5.790;2023-09-19T18:19:02;4.05;;;1.70;;
62256;SDS011;48240;52.962;5.790;2023-09-19T18:21:29;7.38;;;2.20;;
62256;SDS011;48240;52.962;5.790;2023-09-19T18:23:57;6.43;;;1.60;;
62256;SDS011;48240;52.962;5.790;2023-09-19T18:26:24;5.97;;;1.80;;
62256;SDS011;48240;52.962;5.790;2023-09-19T18:28:50;7.53;;;1.85;;
62256;SDS011;48240;52.962;5.790;2023-09-19T18:31:17;7.53;;;1.83;;
62256;SDS011;48240;52.962;5.790;2023-09-19T18:33:43;6.18;;;1.85;;
62256;SDS011;48240;52.962;5.790;2023-09-19T18:36:12;6.43;;;2.28;;
62256;SDS011;48240;52.962;5.790;2023-09-19T18:38:38;5.32;;;1.75;;
62256;SDS011;48240;52.962;5.790;2023-09-19T18:41:14;6.90;;;2.10;;
62256;SDS011;48240;52.962;5.790;2023-09-19T18:43:41;5.18;;;1.63;;
62256;SDS011;48240;52.962;5.790;2023-09-19T18:46:07;5.82;;;1.80;;
62256;SDS011;48240;52.962;5.790;2023-09-19T18:48:35;7.45;;;1.95;;
62256;SDS011;48240;52.962;5.790;2023-09-19T18:51:04;4.60;;;1.90;;
62256;SDS011;48240;52.962;5.790;2023-09-19T18:53:31;6.67;;;1.90;;
62256;SDS011;48240;52.962;5.790;2023-09-19T18:56:02;5.00;;;1.63;;
62256;SDS011;48240;52.962;5.790;2023-09-19T18:58:28;6.57;;;1.67;;
62256;SDS011;48240;52.962;5.790;2023-09-19T19:01:05;7.75;;;1.67;;
62256;SDS011;48240;52.962;5.790;2023-09-19T19:03:32;8.38;;;2.13;;
62256;SDS011;48240;52.962;5.790;2023-09-19T19:06:09;4.45;;;1.65;;
62256;SDS011;48240;52.962;5.790;2023-09-19T19:08:36;7.03;;;1.98;;
62256;SDS011;48240;52.962;5.790;2023-09-19T19:11:06;5.32;;;1.95;;
62256;SDS011;48240;52.962;5.790;2023-09-19T19:13:33;6.60;;;1.60;;
62256;SDS011;48240;52.962;5.790;2023-09-19T19:15:59;5.65;;;1.83;;